createdAt,value
2022-10-21T00:00:27.613Z,82.20
2022-10-21T00:05:53.742Z,82.59
2022-10-21T00:11:03.752Z,82.82
2022-10-21T00:16:17.442Z,83.05
2022-10-21T00:21:32.229Z,83.39
2022-10-21T00:26:46.685Z,84.09
2022-10-21T00:31:54.772Z,84.91
2022-10-21T00:36:58.449Z,84.31
2022-10-21T00:42:01.970Z,85.79
2022-10-21T00:47:08.398Z,85.29
2022-10-21T00:52:20.872Z,84.75
2022-10-21T00:57:25.870Z,83.35
2022-10-21T01:02:29.626Z,82.69
2022-10-21T01:07:36.359Z,83.19
2022-10-21T01:13:03.860Z,84.13
2022-10-21T01:18:12.761Z,84.84
2022-10-21T01:23:28.237Z,85.08
2022-10-21T01:28:34.551Z,85.91
2022-10-21T01:34:04.094Z,84.96
2022-10-21T01:39:31.375Z,84.70
2022-10-21T01:44:40.395Z,84.16
2022-10-21T01:49:58.214Z,84.01
2022-10-21T01:55:06.505Z,83.42
2022-10-21T02:00:10.846Z,84.17
2022-10-21T02:05:20.015Z,83.78
2022-10-21T02:10:26.880Z,83.67
2022-10-21T02:15:30.839Z,83.52
2022-10-21T02:20:40.598Z,83.37
2022-10-21T02:25:46.379Z,82.99
2022-10-21T02:31:21.757Z,83.78
2022-10-21T02:36:28.122Z,83.64
2022-10-21T02:41:32.574Z,84.28
2022-10-21T02:46:40.988Z,84.21
2022-10-21T02:51:45.265Z,83.52
2022-10-21T02:56:48.803Z,84.18
2022-10-21T03:01:52.252Z,84.26
2022-10-21T03:06:55.399Z,84.63
2022-10-21T03:11:58.722Z,84.74
2022-10-21T03:17:01.987Z,84.78
2022-10-21T03:22:05.274Z,85.02
2022-10-21T03:27:08.572Z,84.78
2022-10-21T03:32:12.073Z,84.25
2022-10-21T03:37:15.521Z,85.27
2022-10-21T03:42:18.806Z,85.72
2022-10-21T03:47:22.191Z,85.16
2022-10-21T03:52:25.580Z,85.25
2022-10-21T03:57:28.848Z,85.28
2022-10-21T04:02:32.103Z,85.49
2022-10-21T04:07:35.320Z,86.10
2022-10-21T04:12:38.993Z,86.54
2022-10-21T04:17:42.571Z,86.72
2022-10-21T04:22:45.754Z,87.02
2022-10-21T04:27:49.035Z,86.82
2022-10-21T04:32:52.345Z,86.67
2022-10-21T04:37:55.543Z,87.11
2022-10-21T04:42:58.811Z,87.33
2022-10-21T04:48:02.123Z,87.43
2022-10-21T04:53:05.458Z,87.55
2022-10-21T04:58:08.709Z,87.56
2022-10-21T05:03:12.050Z,87.57
2022-10-21T05:08:15.338Z,87.56
2022-10-21T05:13:18.732Z,87.45
2022-10-21T05:18:22.149Z,87.01
2022-10-21T05:23:26.327Z,86.48
2022-10-21T05:28:32.717Z,86.03
2022-10-21T05:33:39.422Z,85.46
2022-10-21T05:38:48.557Z,85.41
2022-10-21T05:43:55.083Z,85.25
2022-10-21T05:48:58.561Z,84.86
2022-10-21T05:54:04.089Z,84.34
2022-10-21T05:59:10.086Z,84.26
2022-10-21T06:04:13.749Z,84.07
2022-10-21T06:09:17.891Z,83.84
2022-10-21T06:14:21.627Z,83.69
2022-10-21T06:19:24.894Z,83.38
2022-10-21T06:24:28.354Z,83.15
2022-10-21T06:29:36.406Z,82.99
2022-10-21T06:34:40.428Z,82.62
2022-10-21T06:39:43.922Z,82.62
2022-10-21T06:44:47.200Z,82.66
2022-10-21T06:49:50.478Z,82.51
2022-10-21T06:54:53.803Z,82.20
2022-10-21T06:59:59.556Z,82.17
2022-10-21T07:05:02.980Z,82.09
2022-10-21T07:10:06.474Z,81.63
2022-10-21T07:15:10.406Z,81.40
2022-10-21T07:20:16.291Z,81.20
2022-10-21T07:25:20.186Z,81.21
2022-10-21T07:30:23.990Z,80.58
2022-10-21T07:35:27.250Z,80.80
2022-10-21T07:40:30.737Z,79.85
2022-10-21T07:45:35.068Z,80.09
2022-10-21T07:50:38.290Z,79.77
2022-10-21T07:55:41.657Z,78.90
2022-10-21T08:00:45.513Z,78.97
2022-10-21T08:05:49.049Z,78.81
2022-10-21T08:10:53.703Z,78.89
2022-10-21T08:15:57.155Z,76.43
2022-10-21T08:21:03.565Z,76.64
2022-10-21T08:26:17.375Z,76.77
2022-10-21T08:31:22.368Z,76.02
2022-10-21T08:36:26.782Z,75.96
2022-10-21T08:41:30.091Z,74.47
2022-10-21T08:47:20.018Z,73.97
2022-10-21T08:52:50.402Z,73.81
2022-10-21T08:57:57.828Z,73.78
2022-10-21T09:03:32.507Z,73.71
2022-10-21T09:08:43.456Z,73.15
2022-10-21T09:14:44.073Z,72.97
2022-10-21T09:19:49.665Z,72.23
2022-10-21T09:24:59.234Z,71.07
2022-10-21T09:30:18.903Z,71.35
2022-10-21T09:35:31.202Z,71.26
2022-10-21T09:40:34.670Z,71.47
2022-10-21T09:45:43.924Z,71.36
2022-10-21T09:50:50.794Z,70.55
2022-10-21T09:56:20.881Z,68.44
2022-10-21T10:01:24.361Z,68.75
2022-10-21T10:06:35.866Z,67.67
2022-10-21T10:11:56.369Z,69.34
2022-10-21T10:17:27.792Z,67.89
2022-10-21T10:22:41.383Z,64.18
2022-10-21T10:28:00.404Z,65.79
2022-10-21T10:33:16.210Z,67.01
2022-10-21T10:38:38.659Z,61.81
2022-10-21T10:43:56.993Z,60.17
2022-10-21T10:49:19.796Z,58.67
2022-10-21T10:54:28.550Z,60.98
2022-10-21T10:59:47.806Z,60.54
2022-10-21T11:05:26.145Z,61.64
2022-10-21T11:10:32.447Z,59.56
2022-10-21T11:15:41.962Z,57.84
2022-10-21T11:21:14.305Z,60.77
2022-10-21T11:26:34.942Z,55.49
2022-10-21T11:32:06.645Z,59.37
2022-10-21T11:37:23.083Z,59.04
2022-10-21T11:42:37.824Z,58.21
2022-10-21T11:48:06.726Z,58.06
2022-10-21T11:53:32.256Z,58.89
2022-10-21T11:59:01.928Z,58.40
2022-10-21T12:04:36.728Z,58.36
2022-10-21T12:10:21.026Z,59.33
2022-10-21T12:15:47.422Z,60.75
2022-10-21T12:20:54.463Z,62.60
2022-10-21T12:26:24.800Z,62.64
2022-10-21T12:31:58.270Z,58.94
2022-10-21T12:37:04.385Z,59.54
2022-10-21T12:42:20.384Z,58.69
2022-10-21T12:47:43.992Z,59.38
2022-10-21T12:53:09.252Z,62.46
2022-10-21T12:58:32.005Z,63.04
2022-10-21T13:03:45.930Z,60.35
2022-10-21T13:08:54.695Z,58.90
2022-10-21T13:14:23.096Z,59.00
2022-10-21T13:19:34.490Z,59.08
2022-10-21T13:24:40.459Z,59.26
2022-10-21T13:29:49.040Z,60.32
2022-10-21T13:35:20.783Z,61.02
2022-10-21T13:41:07.530Z,61.43
2022-10-21T13:46:17.837Z,62.09
2022-10-21T13:51:30.337Z,63.76
2022-10-21T13:56:36.012Z,63.57
2022-10-21T14:01:51.455Z,63.72
2022-10-21T14:07:01.559Z,63.89
2022-10-21T14:12:10.357Z,64.56
2022-10-21T14:17:27.226Z,65.16
2022-10-21T14:22:33.515Z,65.71
2022-10-21T14:27:37.270Z,65.89
2022-10-21T14:32:41.558Z,66.50
2022-10-21T14:37:48.833Z,66.93
2022-10-21T14:42:54.319Z,67.18
2022-10-21T14:48:27.451Z,67.58
2022-10-21T14:53:51.284Z,68.30
2022-10-21T14:59:26.118Z,68.83
2022-10-21T15:04:51.850Z,69.63
2022-10-21T15:10:30.547Z,70.08
2022-10-21T15:15:54.549Z,70.69
2022-10-21T15:21:01.839Z,70.75
2022-10-21T15:26:42.753Z,70.98
2022-10-21T15:31:55.452Z,71.40
2022-10-21T15:37:15.622Z,72.28
2022-10-21T15:42:38.356Z,72.54
2022-10-21T15:47:56.064Z,71.69
2022-10-21T15:53:29.450Z,71.51
2022-10-21T15:58:54.091Z,71.73
2022-10-21T16:04:32.298Z,72.76
2022-10-21T16:09:51.164Z,77.04
2022-10-21T16:15:20.517Z,76.23
2022-10-21T16:20:29.680Z,77.58
2022-10-21T16:25:46.589Z,78.52
2022-10-21T16:31:06.774Z,80.34
2022-10-21T16:36:31.502Z,79.57
2022-10-21T16:41:49.479Z,79.52
2022-10-21T16:46:59.725Z,78.23
2022-10-21T16:52:07.582Z,79.66
2022-10-21T16:57:17.777Z,79.47
2022-10-21T17:02:21.575Z,79.58
2022-10-21T17:07:40.718Z,82.16
2022-10-21T17:12:48.170Z,83.69
2022-10-21T17:17:57.511Z,85.34
2022-10-21T17:23:02.536Z,85.98
2022-10-21T17:28:09.862Z,86.29
2022-10-21T17:33:17.376Z,86.83
2022-10-21T17:38:22.521Z,87.07
2022-10-21T17:43:27.451Z,86.07
2022-10-21T17:48:40.469Z,87.14
2022-10-21T17:54:01.454Z,87.67
2022-10-21T17:59:38.065Z,88.13
2022-10-21T18:05:04.605Z,86.78
2022-10-21T18:10:20.544Z,87.98
2022-10-21T18:15:38.394Z,88.58
2022-10-21T18:20:59.630Z,88.66
2022-10-21T18:27:05.863Z,88.38
2022-10-21T18:32:52.416Z,85.48
2022-10-21T18:38:08.332Z,83.99
2022-10-21T18:43:31.610Z,87.44
2022-10-21T18:48:59.768Z,87.30
2022-10-21T18:54:47.218Z,85.22
2022-10-21T19:00:13.773Z,87.44
2022-10-21T19:05:33.949Z,85.98
2022-10-21T19:11:32.215Z,87.14
2022-10-21T19:16:48.249Z,84.91
2022-10-21T19:22:01.643Z,83.28
2022-10-21T19:27:09.794Z,83.80
2022-10-21T19:32:21.954Z,83.76
2022-10-21T19:37:32.115Z,85.39
2022-10-21T19:42:43.442Z,86.02
2022-10-21T19:47:57.213Z,84.63
2022-10-21T19:53:05.576Z,85.36
2022-10-21T19:58:12.332Z,85.87
2022-10-21T20:03:17.650Z,85.26
2022-10-21T20:08:34.976Z,85.96
2022-10-21T20:13:53.701Z,87.72
2022-10-21T20:19:08.348Z,87.57
2022-10-21T20:24:24.773Z,87.36
2022-10-21T20:29:38.518Z,86.79
2022-10-21T20:34:52.161Z,87.48
2022-10-21T20:40:06.935Z,86.64
2022-10-21T20:45:10.994Z,87.02
2022-10-21T20:50:34.756Z,87.21
2022-10-21T20:55:38.768Z,87.26
2022-10-21T21:00:47.263Z,87.21
2022-10-21T21:06:02.655Z,87.98
2022-10-21T21:11:13.307Z,87.18
2022-10-21T21:16:19.819Z,87.00
2022-10-21T21:21:27.269Z,87.14
2022-10-21T21:26:37.652Z,87.77
2022-10-21T21:31:41.743Z,86.85
2022-10-21T21:36:46.247Z,88.28
2022-10-21T21:41:51.981Z,87.75
2022-10-21T21:46:59.030Z,87.91
2022-10-21T21:52:12.718Z,87.95
2022-10-21T21:57:34.357Z,88.55
2022-10-21T22:02:37.703Z,88.50
2022-10-21T22:07:41.228Z,88.42
2022-10-21T22:12:47.720Z,88.51
2022-10-21T22:17:52.103Z,88.51
2022-10-21T22:22:55.742Z,88.87
2022-10-21T22:27:59.082Z,89.02
2022-10-21T22:33:02.362Z,88.68
2022-10-21T22:38:06.102Z,88.63
2022-10-21T22:43:09.281Z,88.73
2022-10-21T22:48:12.541Z,89.06
2022-10-21T22:53:16.247Z,90.00
2022-10-21T22:58:21.567Z,90.70
2022-10-21T23:03:24.819Z,90.67
2022-10-21T23:08:28.216Z,90.09
2022-10-21T23:13:31.471Z,90.25
2022-10-21T23:18:34.721Z,91.00
2022-10-21T23:23:38.590Z,91.73
2022-10-21T23:28:43.034Z,91.83
2022-10-21T23:33:49.326Z,90.80
2022-10-21T23:38:55.767Z,90.38
2022-10-21T23:43:59.167Z,91.16
2022-10-21T23:49:02.295Z,90.91
2022-10-21T23:54:05.638Z,91.22
2022-10-21T23:59:08.866Z,91.44
